Time;durP1;ratioP1;P1;durP2;ratioP2;P2;SDS_P1;SDS_P2;PMS_P1;PMS_P2;Temp;Humidity;BMP_temperature;BMP_pressure;BME280_temperature;BME280_humidity;BME280_pressure;Samples;Min_cycle;Max_cycle;Signal;HPM_P1;HPM_P2
2022/04/05 00:00:55;;;;;;;5.95;4.70;;;;;;;20.53;20.11;96850.78;5071373;28;20028;-76
2022/04/05 00:03:21;;;;;;;5.85;4.75;;;;;;;21.82;18.40;96850.13;5073760;28;20032;-75
2022/04/05 00:05:47;;;;;;;5.22;4.25;;;;;;;21.30;19.55;96844.22;5073155;28;20374;-76
2022/04/05 00:08:16;;;;;;;4.50;4.05;;;;;;;21.61;18.91;96847.25;5074513;28;20397;-76
2022/04/05 00:10:42;;;;;;;4.97;4.45;;;;;;;19.88;20.24;96855.63;5069647;28;20469;-75
2022/04/05 00:13:09;;;;;;;9.35;4.93;;;;;;;20.69;19.96;96847.16;5073100;28;20040;-75
2022/04/05 00:15:35;;;;;;;6.45;4.38;;;;;;;21.14;19.45;96833.16;5075365;28;20032;-76
2022/04/05 00:18:02;;;;;;;8.07;4.75;;;;;;;20.56;20.00;96833.16;5070128;28;20039;-76
2022/04/05 00:20:29;;;;;;;6.68;4.72;;;;;;;20.87;19.95;96829.91;5072676;28;20056;-76
2022/04/05 00:22:56;;;;;;;6.78;4.18;;;;;;;21.67;19.17;96832.28;5075189;28;20405;-75
2022/04/05 00:25:22;;;;;;;5.38;3.95;;;;;;;21.96;19.25;96832.94;5070743;28;20143;-75
2022/04/05 00:27:48;;;;;;;5.13;4.03;;;;;;;22.60;18.18;96828.75;5073470;28;20175;-76
2022/04/05 00:30:15;;;;;;;5.72;4.75;;;;;;;21.34;19.99;96812.16;5073309;28;20481;-76
2022/04/05 00:32:42;;;;;;;5.05;4.38;;;;;;;21.66;19.52;96813.94;5070281;28;20024;-75
2022/04/05 00:35:09;;;;;;;4.50;3.90;;;;;;;22.09;18.98;96804.97;5076804;28;20089;-76
2022/04/05 00:37:35;;;;;;;5.22;4.18;;;;;;;21.63;19.46;96808.47;5076760;28;20064;-76
2022/04/05 00:40:04;;;;;;;4.03;3.63;;;;;;;21.65;19.65;96808.81;5075244;28;20036;-76
2022/04/05 00:42:30;;;;;;;4.28;3.78;;;;;;;21.45;19.58;96814.63;5069036;28;20036;-76
2022/04/05 00:44:56;;;;;;;5.65;4.43;;;;;;;21.44;19.70;96801.91;5077697;28;20032;-76
2022/04/05 00:47:24;;;;;;;5.95;4.55;;;;;;;21.03;19.98;96787.97;5073598;28;20040;-76
2022/04/05 00:49:52;;;;;;;5.80;4.60;;;;;;;20.67;20.53;96800.19;5073243;28;20036;-75
2022/04/05 00:52:20;;;;;;;4.85;3.42;;;;;;;21.84;19.44;96788.25;5077359;28;20228;-75
2022/04/05 00:54:48;;;;;;;4.85;3.83;;;;;;;22.27;18.81;96798.75;5075090;28;20036;-76
2022/04/05 00:57:17;;;;;;;6.22;4.15;;;;;;;22.69;18.23;96792.44;5076892;28;20039;-75
2022/04/05 00:59:46;;;;;;;3.92;3.40;;;;;;;22.66;18.42;96784.19;5072075;28;20179;-75
2022/04/05 01:02:17;;;;;;;3.88;3.47;;;;;;;22.62;18.43;96784.31;5074013;28;20088;-75
2022/04/05 01:04:45;;;;;;;4.57;3.25;;;;;;;22.65;18.49;96785.41;5072830;28;20032;-75
2022/04/05 01:07:16;;;;;;;3.55;3.20;;;;;;;21.81;19.19;96791.91;5072911;28;20517;-76
2022/04/05 01:09:42;;;;;;;4.57;4.10;;;;;;;22.00;18.97;96788.91;5079957;28;20036;-76
2022/04/05 01:12:11;;;;;;;3.55;3.25;;;;;;;21.78;19.11;96779.63;5077010;28;20020;-76
2022/04/05 01:14:38;;;;;;;5.97;3.63;;;;;;;22.07;19.10;96785.06;5070838;28;20028;-76
2022/04/05 01:17:05;;;;;;;4.38;3.65;;;;;;;22.38;18.37;96779.59;5077339;28;20025;-76
2022/04/05 01:19:32;;;;;;;5.47;3.80;;;;;;;20.91;19.99;96778.34;5071738;28;20482;-76
2022/04/05 01:21:58;;;;;;;4.50;3.63;;;;;;;21.45;19.58;96774.75;5073970;28;20024;-75
2022/04/05 01:24:24;;;;;;;4.05;3.50;;;;;;;22.09;19.15;96776.22;5075058;28;20087;-76
2022/04/05 01:26:52;;;;;;;4.30;3.15;;;;;;;22.62;18.55;96777.94;5074689;28;20119;-75
2022/04/05 01:29:20;;;;;;;3.95;3.35;;;;;;;21.80;19.52;96765.97;5073467;28;20119;-76
2022/04/05 01:31:49;;;;;;;4.82;3.75;;;;;;;21.63;19.45;96775.75;5070505;28;20036;-76
2022/04/05 01:34:18;;;;;;;3.80;3.40;;;;;;;22.27;18.94;96749.19;5072882;28;20538;-76
2022/04/05 01:36:52;;;;;;;5.28;3.42;;;;;;;22.12;19.08;96756.53;5072030;28;22728;-76
2022/04/05 01:39:20;;;;;;;3.35;3.05;;;;;;;21.72;19.66;96749.91;5077617;28;20036;-76
2022/04/05 01:41:55;;;;;;;4.47;3.30;;;;;;;22.04;18.95;96738.44;5070375;28;20043;-76
2022/04/05 01:44:22;;;;;;;3.90;3.40;;;;;;;21.20;19.92;96751.19;5074339;28;20036;-76
2022/04/05 01:46:48;;;;;;;6.65;3.33;;;;;;;21.83;19.45;96761.50;5074039;28;20386;-76
2022/04/05 01:49:15;;;;;;;3.40;3.10;;;;;;;21.73;19.87;96759.84;5074044;28;20032;-76
2022/04/05 01:51:43;;;;;;;3.25;2.95;;;;;;;20.44;21.31;96769.75;5073801;28;20017;-76
2022/04/05 01:54:11;;;;;;;5.50;3.92;;;;;;;20.95;21.10;96765.09;5075053;28;20355;-76
2022/04/05 01:56:49;;;;;;;2.88;2.60;;;;;;;21.00;20.92;96772.94;5072102;28;20032;-76
2022/04/05 01:59:18;;;;;;;3.45;3.15;;;;;;;21.05;21.39;96763.25;5072234;28;20101;-76
2022/04/05 02:01:45;;;;;;;3.80;3.17;;;;;;;21.78;20.70;96779.63;5073426;28;20063;-76
2022/04/05 02:04:12;;;;;;;3.80;3.15;;;;;;;20.33;22.43;96774.88;5074367;28;20198;-76
2022/04/05 02:06:39;;;;;;;3.95;3.28;;;;;;;21.18;21.59;96762.03;5071781;28;20032;-76
2022/04/05 02:09:06;;;;;;;3.40;3.10;;;;;;;20.13;23.12;96768.63;5076531;28;20039;-76
2022/04/05 02:11:33;;;;;;;4.05;3.47;;;;;;;19.93;23.17;96756.81;5072787;28;20029;-76
2022/04/05 02:13:59;;;;;;;2.60;2.40;;;;;;;21.58;21.75;96753.19;5075934;28;20573;-76
2022/04/05 02:16:26;;;;;;;4.70;2.90;;;;;;;22.58;20.46;96757.69;5070091;28;20032;-76
2022/04/05 02:18:52;;;;;;;4.10;3.40;;;;;;;22.45;20.42;96749.34;5074844;28;20040;-76
2022/04/05 02:21:19;;;;;;;3.30;2.97;;;;;;;21.64;21.28;96743.00;5076209;28;20104;-76
2022/04/05 02:23:45;;;;;;;2.60;2.33;;;;;;;21.53;21.29;96742.56;5074366;28;20032;-76
2022/04/05 02:26:12;;;;;;;3.00;2.72;;;;;;;21.64;21.49;96746.56;5072344;28;20048;-76
2022/04/05 02:28:38;;;;;;;3.45;3.10;;;;;;;21.41;21.89;96748.94;5059332;28;20448;-76
2022/04/05 02:31:04;;;;;;;2.85;2.65;;;;;;;21.55;21.68;96740.88;5071303;28;20031;-76
2022/04/05 02:33:30;;;;;;;3.10;2.83;;;;;;;20.98;21.68;96739.09;5071303;28;20469;-76
2022/04/05 02:35:56;;;;;;;4.20;3.35;;;;;;;21.93;21.19;96738.84;5069962;28;20107;-77
2022/04/05 02:38:22;;;;;;;4.20;3.13;;;;;;;22.11;20.96;96729.81;5070441;28;20043;-76
2022/04/05 02:40:48;;;;;;;2.88;2.40;;;;;;;22.54;20.49;96737.44;5073656;28;20049;-76
2022/04/05 02:43:15;;;;;;;2.83;2.53;;;;;;;22.39;20.63;96731.59;5074784;28;20032;-76
2022/04/05 02:45:41;;;;;;;3.20;2.85;;;;;;;22.17;20.86;96728.00;5072106;28;20089;-77
2022/04/05 02:48:07;;;;;;;2.47;2.15;;;;;;;21.63;21.84;96745.03;5075487;28;20477;-77
2022/04/05 02:50:33;;;;;;;4.53;3.00;;;;;;;22.22;21.15;96733.00;5069608;28;20078;-77
2022/04/05 02:52:59;;;;;;;2.55;2.33;;;;;;;22.27;20.94;96735.22;5072865;28;20085;-76
2022/04/05 02:55:25;;;;;;;2.58;2.38;;;;;;;22.83;20.40;96737.16;5072630;28;20044;-76
2022/04/05 02:57:51;;;;;;;2.38;2.08;;;;;;;22.24;20.96;96735.38;5077306;28;20036;-77
2022/04/05 03:00:19;;;;;;;1.52;1.42;;;;;;;22.48;20.52;96731.66;5073581;28;20564;-77
2022/04/05 03:02:45;;;;;;;2.13;1.83;;;;;;;22.03;21.24;96731.31;5079433;28;20071;-77
2022/04/05 03:05:13;;;;;;;2.35;2.10;;;;;;;22.67;20.61;96736.16;5076452;28;20431;-77
2022/04/05 03:07:40;;;;;;;2.22;1.73;;;;;;;23.07;20.10;96727.84;5075847;28;20020;-76
2022/04/05 03:10:09;;;;;;;2.47;2.28;;;;;;;22.85;20.41;96729.88;5072483;28;20098;-77
2022/04/05 03:12:36;;;;;;;2.03;1.80;;;;;;;22.89;20.28;96726.97;5068692;28;20032;-77
2022/04/05 03:15:08;;;;;;;1.90;1.70;;;;;;;22.94;20.28;96720.78;5072998;28;20079;-77
2022/04/05 03:17:35;;;;;;;2.63;1.60;;;;;;;23.40;19.90;96724.56;5074081;28;20032;-77
2022/04/05 03:20:04;;;;;;;2.00;1.60;;;;;;;23.18;19.85;96716.19;5069842;28;20044;-77
2022/04/05 03:22:30;;;;;;;1.75;1.50;;;;;;;23.17;20.15;96717.44;5073218;28;20061;-77
2022/04/05 03:24:57;;;;;;;1.65;1.38;;;;;;;23.49;19.80;96710.56;5076144;28;20066;-77
2022/04/05 03:27:23;;;;;;;1.75;1.45;;;;;;;23.63;19.56;96713.56;5075366;28;20032;-77
2022/04/05 03:29:49;;;;;;;1.65;1.55;;;;;;;23.78;19.26;96710.97;5074718;28;20454;-77
2022/04/05 03:32:15;;;;;;;1.40;1.30;;;;;;;23.76;19.37;96707.81;5073183;28;20032;-77
2022/04/05 03:34:41;;;;;;;1.55;1.40;;;;;;;23.39;19.49;96704.16;5076896;28;20035;-77
2022/04/05 03:37:07;;;;;;;1.10;1.05;;;;;;;23.20;19.68;96708.91;5075816;28;20060;-77
2022/04/05 03:39:33;;;;;;;7.88;3.05;;;;;;;23.03;20.20;96706.81;5073838;28;20528;-77
2022/04/05 03:42:01;;;;;;;2.90;1.80;;;;;;;22.90;20.05;96711.72;5076705;28;20120;-77
2022/04/05 03:44:27;;;;;;;2.95;1.58;;;;;;;22.93;20.28;96708.78;5076638;28;20032;-77
2022/04/05 03:46:56;;;;;;;2.65;1.98;;;;;;;23.26;19.81;96704.28;5074137;28;20194;-77
2022/04/05 03:49:22;;;;;;;3.17;1.83;;;;;;;23.32;19.88;96704.44;5077032;28;20732;-77
2022/04/05 03:51:49;;;;;;;3.53;1.52;;;;;;;23.66;19.25;96709.84;5077132;28;20662;-77
2022/04/05 03:54:15;;;;;;;7.72;2.22;;;;;;;23.59;19.33;96703.75;5076961;28;20111;-77
2022/04/05 03:56:41;;;;;;;6.47;3.22;;;;;;;22.76;20.32;96698.28;5075486;28;20381;-77
2022/04/05 03:59:07;;;;;;;3.45;1.88;;;;;;;23.26;19.80;96698.66;5076309;28;20548;-77
2022/04/05 04:01:33;;;;;;;3.88;1.50;;;;;;;23.22;19.90;96706.41;5075511;28;20591;-77
2022/04/05 04:03:59;;;;;;;3.40;1.70;;;;;;;23.29;19.57;96700.53;5076712;28;20058;-77
2022/04/05 04:06:25;;;;;;;3.00;1.33;;;;;;;23.38;19.46;96693.44;5075932;28;20505;-77
2022/04/05 04:08:51;;;;;;;4.32;1.48;;;;;;;23.39;19.64;96706.97;5076148;28;20038;-77
2022/04/05 04:11:17;;;;;;;8.55;3.35;;;;;;;23.68;19.26;96701.75;5070228;28;20048;-77
2022/04/05 04:13:43;;;;;;;4.80;1.67;;;;;;;23.71;19.36;96705.66;5073541;28;20028;-76
2022/04/05 04:16:09;;;;;;;1.67;1.02;;;;;;;24.02;19.02;96701.47;5070732;28;20045;-77
2022/04/05 04:18:35;;;;;;;2.58;1.38;;;;;;;23.51;19.20;96702.47;5069491;28;20043;-77
2022/04/05 04:21:01;;;;;;;4.00;1.30;;;;;;;23.58;19.39;96705.00;5074260;28;20040;-77
2022/04/05 04:23:27;;;;;;;4.50;2.20;;;;;;;23.67;19.17;96705.78;5074824;28;20504;-77
2022/04/05 04:25:53;;;;;;;3.90;1.77;;;;;;;23.57;19.57;96704.22;5070946;28;20044;-77
2022/04/05 04:28:20;;;;;;;2.65;1.15;;;;;;;23.22;19.77;96711.25;5073734;28;20550;-76
2022/04/05 04:30:46;;;;;;;4.68;1.83;;;;;;;23.35;19.81;96711.94;5080157;28;20082;-77
2022/04/05 04:33:13;;;;;;;3.80;1.67;;;;;;;23.19;19.82;96706.56;5073665;28;20174;-77
2022/04/05 04:35:41;;;;;;;7.63;2.47;;;;;;;23.35;19.98;96709.94;5070039;28;20029;-77
2022/04/05 04:38:08;;;;;;;3.05;1.88;;;;;;;23.10;20.32;96707.31;5073979;28;20481;-77
2022/04/05 04:40:36;;;;;;;8.50;2.38;;;;;;;23.15;19.90;96708.75;5070931;28;20112;-78
2022/04/05 04:43:02;;;;;;;5.25;2.10;;;;;;;23.21;20.11;96712.47;5070315;28;20043;-78
2022/04/05 04:45:31;;;;;;;3.67;1.90;;;;;;;23.76;19.71;96714.22;5071991;28;20078;-78
2022/04/05 04:47:57;;;;;;;3.47;2.00;;;;;;;23.51;19.84;96714.47;5075629;28;20027;-78
2022/04/05 04:50:24;;;;;;;11.45;3.63;;;;;;;24.09;19.32;96719.25;5079687;28;20490;-79
2022/04/05 04:52:50;;;;;;;9.65;3.80;;;;;;;23.73;19.61;96717.97;5081464;28;20481;-78
2022/04/05 04:55:16;;;;;;;6.40;2.55;;;;;;;23.92;19.52;96722.31;5079624;28;20036;-78
2022/04/05 04:57:42;;;;;;;4.95;2.03;;;;;;;22.78;20.69;96721.75;5073899;28;20028;-77
2022/04/05 05:00:08;;;;;;;12.32;4.53;;;;;;;22.71;20.74;96724.06;5077400;28;20413;-77
2022/04/05 05:03:04;;;;;;;18.60;6.32;;;;;;;22.75;21.03;96721.91;5079127;28;20393;-77
2022/04/05 05:05:30;;;;;;;22.08;6.63;;;;;;;23.47;20.18;96738.28;5062413;28;20044;-77
2022/04/05 05:07:56;;;;;;;22.05;7.40;;;;;;;23.37;20.08;96726.25;5073932;28;20024;-78
2022/04/05 05:10:23;;;;;;;7.97;3.70;;;;;;;22.83;20.77;96726.75;5082053;28;20078;-78
2022/04/05 05:12:49;;;;;;;17.90;7.57;;;;;;;23.59;20.19;96726.97;5080508;28;20033;-78
2022/04/05 05:15:18;;;;;;;14.32;5.63;;;;;;;23.28;20.47;96729.00;5078905;28;20101;-77
2022/04/05 05:17:46;;;;;;;12.95;6.20;;;;;;;23.36;20.33;96727.53;5076196;28;20050;-78
2022/04/05 05:20:14;;;;;;;5.53;3.03;;;;;;;23.15;20.37;96733.94;5074135;28;20035;-78
2022/04/05 05:22:40;;;;;;;9.60;3.80;;;;;;;23.45;20.37;96738.75;5073319;28;20102;-78
2022/04/05 05:25:07;;;;;;;9.32;2.95;;;;;;;23.46;20.29;96739.50;5076107;28;20071;-78
2022/04/05 05:27:34;;;;;;;8.85;2.58;;;;;;;23.68;20.00;96743.78;5074677;28;20037;-77
2022/04/05 05:30:00;;;;;;;6.85;2.67;;;;;;;23.88;19.77;96746.94;5076738;28;20111;-77
2022/04/05 05:32:26;;;;;;;10.48;3.10;;;;;;;23.55;20.25;96742.38;5079388;28;20524;-78
2022/04/05 05:34:52;;;;;;;6.70;2.20;;;;;;;22.92;21.05;96746.41;5078044;28;20043;-77
2022/04/05 05:37:18;;;;;;;9.13;3.63;;;;;;;23.28;20.64;96746.59;5078994;28;20106;-77
2022/04/05 05:39:45;;;;;;;13.77;5.95;;;;;;;22.84;20.88;96755.53;5080815;28;20043;-77
2022/04/05 05:42:11;;;;;;;15.60;6.38;;;;;;;22.66;21.20;96756.22;5081134;28;20028;-77
2022/04/05 05:44:37;;;;;;;9.02;4.68;;;;;;;22.76;21.25;96748.63;5080760;28;20028;-77
2022/04/05 05:47:04;;;;;;;14.43;5.35;;;;;;;23.23;20.75;96749.19;5079357;28;20081;-77
2022/04/05 05:49:31;;;;;;;9.73;3.40;;;;;;;23.06;20.77;96753.47;5078187;28;20020;-78
2022/04/05 05:51:57;;;;;;;7.60;3.10;;;;;;;23.67;20.41;96755.44;5078635;28;20047;-78
2022/04/05 05:54:23;;;;;;;6.20;2.55;;;;;;;23.72;20.11;96752.03;5079810;28;20036;-78
2022/04/05 05:56:49;;;;;;;5.90;2.30;;;;;;;24.06;19.85;96757.44;5078228;28;20032;-78
2022/04/05 05:59:15;;;;;;;8.40;2.55;;;;;;;24.05;19.76;96758.66;5076770;28;20507;-77
2022/04/05 06:01:41;;;;;;;7.43;2.83;;;;;;;24.16;19.75;96761.00;5079635;28;20035;-77
2022/04/05 06:04:07;;;;;;;4.72;1.50;;;;;;;24.03;19.71;96772.34;5080764;28;20040;-78
2022/04/05 06:06:33;;;;;;;4.32;1.70;;;;;;;23.56;20.29;96766.31;5075490;28;20033;-78
2022/04/05 06:09:00;;;;;;;6.13;2.22;;;;;;;23.36;20.55;96761.88;5075204;28;20052;-78
2022/04/05 06:11:26;;;;;;;3.63;1.80;;;;;;;22.74;21.56;96767.91;5079992;28;20047;-78
2022/04/05 06:13:52;;;;;;;2.55;1.38;;;;;;;22.55;21.47;96769.75;5080631;28;20046;-78
2022/04/05 06:16:20;;;;;;;5.20;2.58;;;;;;;23.31;20.72;96779.25;5075018;28;20028;-78
2022/04/05 06:18:47;;;;;;;5.60;2.10;;;;;;;23.87;20.14;96781.06;5076702;28;20025;-78
2022/04/05 06:21:14;;;;;;;6.32;2.10;;;;;;;23.41;20.44;96766.09;5073621;28;20534;-78
2022/04/05 06:23:40;;;;;;;3.00;1.38;;;;;;;23.86;20.11;96779.47;5080262;28;20029;-78
2022/04/05 06:26:07;;;;;;;3.38;1.55;;;;;;;23.88;20.03;96785.41;5076015;28;20048;-78
2022/04/05 06:28:33;;;;;;;5.32;1.90;;;;;;;24.10;19.97;96782.50;5082156;28;20039;-78
2022/04/05 06:30:59;;;;;;;2.22;1.02;;;;;;;23.88;20.09;96777.00;5080283;28;20052;-78
2022/04/05 06:33:25;;;;;;;4.97;1.95;;;;;;;23.36;20.65;96770.28;5075694;28;20052;-78
2022/04/05 06:35:56;;;;;;;3.47;1.90;;;;;;;23.29;20.97;96772.59;5073959;28;20047;-78
2022/04/05 06:38:22;;;;;;;3.63;1.50;;;;;;;23.35;20.85;96781.97;5077456;28;20544;-77
2022/04/05 06:40:49;;;;;;;3.70;1.58;;;;;;;23.13;20.88;96758.78;5078775;28;20397;-77
2022/04/05 06:43:16;;;;;;;1.35;1.02;;;;;;;22.29;22.04;96783.06;5078118;28;20423;-77
2022/04/05 06:45:43;;;;;;;4.13;2.13;;;;;;;22.19;22.22;96786.25;5077396;28;20052;-77
2022/04/05 06:48:10;;;;;;;4.00;1.60;;;;;;;22.67;21.60;96785.75;5078122;28;20036;-77
2022/04/05 06:50:40;;;;;;;4.45;1.20;;;;;;;22.34;22.19;96795.69;5076318;28;20085;-77
2022/04/05 06:53:08;;;;;;;6.13;3.17;;;;;;;23.04;21.35;96784.72;5074881;28;20032;-77
2022/04/05 06:55:35;;;;;;;6.13;2.50;;;;;;;23.47;21.05;96785.91;5081889;28;20492;-77
2022/04/05 06:58:02;;;;;;;2.50;1.15;;;;;;;23.59;20.86;96791.41;5076490;28;20032;-78
2022/04/05 07:00:29;;;;;;;3.83;1.70;;;;;;;23.06;21.55;96790.66;5080139;28;23125;-77
2022/04/05 07:02:57;;;;;;;2.42;1.60;;;;;;;22.56;21.86;96793.72;5070210;28;20036;-77
2022/04/05 07:05:23;;;;;;;9.23;3.53;;;;;;;22.34;22.25;96796.50;5077124;28;20512;-77
2022/04/05 07:07:49;;;;;;;2.38;1.27;;;;;;;22.96;21.48;96791.06;5077072;28;20035;-77
2022/04/05 07:10:18;;;;;;;4.35;2.72;;;;;;;23.21;21.24;96786.06;5082511;28;20060;-77
2022/04/05 07:12:44;;;;;;;1.80;1.25;;;;;;;23.30;21.24;96796.53;5081729;28;20520;-77
2022/04/05 07:15:11;;;;;;;4.75;1.70;;;;;;;23.30;21.31;96800.13;5083235;28;20029;-78
2022/04/05 07:17:40;;;;;;;3.30;1.50;;;;;;;23.41;21.11;96788.50;5081498;28;20078;-77
2022/04/05 07:20:08;;;;;;;4.13;1.98;;;;;;;22.93;21.78;96801.16;5078208;28;20048;-77
2022/04/05 07:22:35;;;;;;;2.72;1.63;;;;;;;23.14;21.21;96796.75;5085494;28;20380;-78
2022/04/05 07:25:03;;;;;;;3.83;1.50;;;;;;;23.34;21.38;96800.78;5081565;28;20128;-78
2022/04/05 07:27:29;;;;;;;2.10;1.30;;;;;;;23.87;20.90;96803.47;5081867;28;20028;-77
2022/04/05 07:29:55;;;;;;;2.50;1.20;;;;;;;24.23;20.41;96805.59;5082931;28;20039;-77
2022/04/05 07:32:21;;;;;;;4.82;2.17;;;;;;;24.08;20.49;96785.00;5078259;28;20066;-77
2022/04/05 07:34:47;;;;;;;2.13;1.15;;;;;;;24.06;20.91;96805.13;5081671;28;20032;-77
2022/04/05 07:37:13;;;;;;;1.85;0.77;;;;;;;23.70;21.04;96790.97;5081261;28;20039;-77
2022/04/05 07:39:40;;;;;;;2.28;1.08;;;;;;;23.92;20.68;96805.69;5080716;28;20051;-78
2022/04/05 07:42:08;;;;;;;1.00;0.70;;;;;;;22.62;22.10;96803.91;5080957;28;20075;-78
2022/04/05 07:44:34;;;;;;;3.15;1.00;;;;;;;22.91;22.19;96800.84;5081076;28;20097;-78
2022/04/05 07:47:00;;;;;;;2.55;0.90;;;;;;;23.08;22.00;96813.38;5079922;28;20063;-78
2022/04/05 07:49:26;;;;;;;2.42;1.23;;;;;;;24.00;21.04;96802.09;5076131;28;20491;-78
2022/04/05 07:51:53;;;;;;;1.60;0.70;;;;;;;24.10;20.88;96810.56;5081709;28;20089;-78
2022/04/05 07:54:19;;;;;;;3.45;1.40;;;;;;;24.28;20.65;96808.56;5085216;28;20072;-77
2022/04/05 07:56:45;;;;;;;2.95;1.35;;;;;;;23.91;20.86;96807.69;5082176;28;20025;-78
2022/04/05 07:59:11;;;;;;;6.88;2.38;;;;;;;24.34;20.92;96817.91;5080078;28;20102;-78
2022/04/05 08:01:37;;;;;;;3.42;1.40;;;;;;;23.92;20.87;96809.22;5077005;28;20060;-78
2022/04/05 08:04:04;;;;;;;2.15;1.13;;;;;;;24.11;20.84;96812.13;5083756;28;20037;-78
2022/04/05 08:06:31;;;;;;;2.45;1.10;;;;;;;24.22;20.62;96812.44;5083923;28;20059;-78
2022/04/05 08:08:57;;;;;;;1.52;0.80;;;;;;;24.74;20.57;96821.34;5084534;28;20040;-78
2022/04/05 08:11:23;;;;;;;1.80;0.90;;;;;;;24.31;20.80;96820.88;5082111;28;20028;-78
2022/04/05 08:13:50;;;;;;;1.67;0.80;;;;;;;24.56;20.53;96831.81;5082244;28;20107;-78
2022/04/05 08:16:16;;;;;;;3.40;1.33;;;;;;;24.88;20.54;96816.41;5081556;28;20021;-78
2022/04/05 08:18:42;;;;;;;4.35;1.65;;;;;;;24.83;20.53;96822.63;5079891;28;20040;-78
2022/04/05 08:21:08;;;;;;;1.85;1.15;;;;;;;25.15;20.07;96828.34;5079208;28;20103;-78
2022/04/05 08:23:34;;;;;;;1.85;0.80;;;;;;;24.11;21.22;96824.09;5081530;28;20028;-79
2022/04/05 08:26:00;;;;;;;1.73;0.90;;;;;;;24.27;20.79;96825.88;5082102;28;20036;-78
2022/04/05 08:28:26;;;;;;;0.80;0.70;;;;;;;24.12;21.06;96824.91;5081079;28;20504;-78
2022/04/05 08:30:52;;;;;;;1.27;0.80;;;;;;;24.37;20.87;96839.44;5079157;28;20036;-78
2022/04/05 08:33:19;;;;;;;2.83;1.58;;;;;;;24.81;20.17;96827.94;5078304;28;20071;-78
2022/04/05 08:35:45;;;;;;;1.40;0.85;;;;;;;24.83;20.30;96829.03;5078551;28;20029;-79
2022/04/05 08:38:11;;;;;;;1.98;0.85;;;;;;;24.62;20.37;96836.31;5082691;28;20032;-78
2022/04/05 08:40:37;;;;;;;2.63;0.70;;;;;;;24.10;20.90;96828.16;5077785;28;20039;-79
2022/04/05 08:43:03;;;;;;;0.68;0.60;;;;;;;24.16;20.97;96831.91;5080677;28;20028;-79
2022/04/05 08:45:29;;;;;;;0.98;0.68;;;;;;;24.53;20.87;96829.91;5082037;28;20631;-79
2022/04/05 08:47:58;;;;;;;2.15;1.50;;;;;;;25.18;20.58;96840.69;5078137;28;20036;-79
2022/04/05 08:50:27;;;;;;;2.35;0.68;;;;;;;24.89;20.21;96835.56;5083156;28;20032;-79
2022/04/05 08:52:54;;;;;;;1.10;0.90;;;;;;;24.70;20.27;96836.78;5080762;28;20051;-79
2022/04/05 08:55:21;;;;;;;1.20;0.93;;;;;;;24.27;21.08;96837.84;5082452;28;20047;-79
2022/04/05 08:57:47;;;;;;;1.92;1.25;;;;;;;23.40;21.27;96834.59;5080775;28;20094;-79
2022/04/05 09:00:19;;;;;;;1.50;0.90;;;;;;;24.27;20.94;96837.09;5080963;28;20086;-79
2022/04/05 09:02:59;;;;;;;1.08;0.85;;;;;;;24.23;20.86;96842.03;5081578;28;20037;-79
2022/04/05 09:05:31;;;;;;;1.98;1.05;;;;;;;24.04;21.80;96838.38;5083561;28;20059;-79
2022/04/05 09:08:12;;;;;;;1.67;1.13;;;;;;;24.62;20.96;96852.41;5079294;28;20036;-79
2022/04/05 09:10:39;;;;;;;1.55;0.98;;;;;;;24.99;20.64;96845.56;5081422;28;20185;-78
2022/04/05 09:13:08;;;;;;;1.60;0.80;;;;;;;25.37;20.31;96851.41;5068728;28;20585;-79
2022/04/05 09:15:35;;;;;;;1.15;0.88;;;;;;;25.39;20.43;96848.13;5061625;28;20037;-79
2022/04/05 09:18:01;;;;;;;2.05;0.80;;;;;;;25.49;20.35;96849.66;5065415;28;20089;-79
2022/04/05 09:20:27;;;;;;;1.30;0.90;;;;;;;25.75;19.92;96848.03;5060897;28;20047;-79
2022/04/05 09:22:54;;;;;;;0.90;0.60;;;;;;;25.83;20.11;96854.09;5061978;28;20431;-79
2022/04/05 09:25:20;;;;;;;1.38;0.70;;;;;;;26.18;20.09;96857.22;5058922;28;20101;-79
2022/04/05 09:27:49;;;;;;;1.80;0.88;;;;;;;26.67;19.24;96854.69;5059872;28;20451;-79
2022/04/05 09:30:21;;;;;;;1.25;0.68;;;;;;;26.56;19.33;96854.44;5061788;28;20578;-78
2022/04/05 09:32:48;;;;;;;1.40;0.70;;;;;;;26.39;19.71;96856.16;5061329;28;20060;-79
2022/04/05 09:35:19;;;;;;;1.00;0.60;;;;;;;26.30;19.86;96865.41;5059362;28;20181;-79
2022/04/05 09:37:46;;;;;;;1.00;0.63;;;;;;;26.46;19.45;96856.59;5070046;28;20036;-79
2022/04/05 09:40:34;;;;;;;2.42;0.88;;;;;;;25.81;19.81;96851.72;5074099;28;20389;-79
2022/04/05 09:43:14;;;;;;;0.82;0.70;;;;;;;26.07;19.84;96852.88;5080444;28;20447;-79
2022/04/05 09:45:59;;;;;;;0.50;0.50;;;;;;;26.04;19.88;96862.25;5078977;28;20035;-79
2022/04/05 09:48:38;;;;;;;0.85;0.50;;;;;;;25.57;20.20;96859.34;5079919;28;20286;-79
2022/04/05 09:51:22;;;;;;;1.17;0.55;;;;;;;25.03;20.51;96853.81;5077728;28;20056;-79
2022/04/05 09:53:51;;;;;;;1.42;0.70;;;;;;;25.21;21.02;96856.56;5080440;28;20571;-79
2022/04/05 09:56:25;;;;;;;2.03;1.05;;;;;;;25.25;20.43;96866.41;5077810;28;20063;-79
2022/04/05 09:59:04;;;;;;;1.90;0.70;;;;;;;25.08;20.76;96861.59;5080315;28;20054;-79
2022/04/05 10:01:32;;;;;;;1.45;0.60;;;;;;;25.60;20.54;96869.63;5079428;28;20051;-79
2022/04/05 10:04:06;;;;;;;0.90;0.68;;;;;;;26.10;20.02;96870.84;5079499;28;20112;-79
2022/04/05 10:06:33;;;;;;;1.75;0.63;;;;;;;25.06;21.00;96870.50;5075749;28;20032;-79
2022/04/05 10:09:00;;;;;;;0.70;0.50;;;;;;;23.90;21.28;96870.59;5078122;28;20394;-79
2022/04/05 10:11:29;;;;;;;0.93;0.57;;;;;;;24.16;21.41;96876.78;5078294;28;20032;-79
2022/04/05 10:13:57;;;;;;;0.65;0.60;;;;;;;24.55;21.45;96873.09;5079678;28;20119;-79
2022/04/05 10:16:26;;;;;;;0.50;0.50;;;;;;;23.98;22.12;96883.09;5078763;28;20406;-79
2022/04/05 10:19:01;;;;;;;1.05;0.75;;;;;;;24.37;22.08;96881.50;5072966;28;20036;-79
2022/04/05 10:21:29;;;;;;;1.55;0.47;;;;;;;24.02;21.95;96874.53;5079724;28;20481;-79
2022/04/05 10:23:57;;;;;;;1.35;0.70;;;;;;;24.70;21.59;96881.69;5079009;28;20123;-79
2022/04/05 10:26:30;;;;;;;1.38;0.70;;;;;;;24.62;21.55;96886.09;5081628;28;20040;-79
2022/04/05 10:28:58;;;;;;;0.85;0.60;;;;;;;25.00;21.18;96883.59;5076526;28;20150;-79
2022/04/05 10:32:01;;;;;;;0.95;0.65;;;;;;;25.21;21.05;96879.06;5074593;28;20103;-78
2022/04/05 10:34:34;;;;;;;1.23;0.60;;;;;;;25.36;20.84;96877.94;5075996;28;20044;-79
2022/04/05 10:37:08;;;;;;;0.50;0.47;;;;;;;25.53;19.99;96888.88;5077932;28;20077;-79
2022/04/05 10:39:36;;;;;;;1.60;0.63;;;;;;;25.29;20.48;96886.72;5074970;28;20032;-79
2022/04/05 10:42:16;;;;;;;1.02;0.55;;;;;;;25.88;20.10;96887.94;5078980;28;20059;-79
2022/04/05 10:45:33;;;;;;;1.00;0.50;;;;;;;25.78;19.79;96892.06;5075864;28;20036;-79
2022/04/05 10:48:01;;;;;;;3.30;0.75;;;;;;;26.26;19.55;96890.16;5074563;28;20036;-78
2022/04/05 10:50:27;;;;;;;0.40;0.40;;;;;;;26.27;19.70;96885.31;5080619;28;20027;-78
2022/04/05 10:53:12;;;;;;;0.50;0.43;;;;;;;25.84;19.46;96889.38;5079517;28;20043;-79
2022/04/05 10:56:09;;;;;;;0.50;0.50;;;;;;;25.27;20.22;96891.22;5074487;28;20482;-79
2022/04/05 10:58:52;;;;;;;0.75;0.60;;;;;;;25.70;19.90;96890.84;5079836;28;20051;-79
2022/04/05 11:01:35;;;;;;;0.50;0.47;;;;;;;25.50;20.05;96890.59;5081915;28;20067;-78
2022/04/05 11:04:17;;;;;;;0.55;0.50;;;;;;;24.36;21.20;96893.22;5073607;28;20028;-78
2022/04/05 11:07:01;;;;;;;0.55;0.50;;;;;;;25.08;20.48;96890.47;5078772;28;20025;-78
2022/04/05 11:09:33;;;;;;;1.17;0.70;;;;;;;25.01;19.98;96893.59;5076594;28;20028;-78
2022/04/05 11:12:02;;;;;;;0.65;0.45;;;;;;;25.10;20.85;96899.22;5074261;28;20055;-78
2022/04/05 11:14:45;;;;;;;0.50;0.50;;;;;;;24.90;20.29;96887.66;5077657;28;20029;-78
2022/04/05 11:17:14;;;;;;;1.48;0.60;;;;;;;25.40;20.10;96900.25;5078337;28;20106;-79
2022/04/05 11:19:44;;;;;;;0.80;0.52;;;;;;;25.24;20.35;96904.19;5074235;28;20032;-78
2022/04/05 11:22:23;;;;;;;0.67;0.57;;;;;;;25.42;19.67;96894.94;5080142;28;20074;-78
2022/04/05 11:25:04;;;;;;;0.60;0.55;;;;;;;25.20;20.24;96912.00;5079301;28;20052;-78
2022/04/05 11:27:45;;;;;;;0.80;0.70;;;;;;;24.63;20.37;96908.06;5075562;28;20074;-78
2022/04/05 11:30:26;;;;;;;2.22;1.05;;;;;;;25.10;19.94;96910.44;5079031;28;20413;-78
2022/04/05 11:33:18;;;;;;;1.48;0.90;;;;;;;25.30;19.75;96907.13;5077492;28;20453;-78
2022/04/05 11:36:10;;;;;;;1.13;0.88;;;;;;;25.57;19.77;96917.59;5078502;28;20036;-78
2022/04/05 11:38:59;;;;;;;2.00;0.90;;;;;;;25.61;19.42;96918.19;5076675;28;20021;-78
2022/04/05 11:41:30;;;;;;;1.90;1.00;;;;;;;24.97;20.40;96918.22;5076566;28;20042;-78